Red Boiling Springs, Tennessee
Current Conditions -  °F | °C
As of 7:55 AM on Saturday 22 Nov 2014 (Local Time) from KGLW Reporting Station
Overcast Overcast  
Wind Chill: 46°   Ceiling: 9000
Heat Index: 49°   Visibility: 10mi
Dew Point: 27°   Wind: 8mph
Humidity: 41%   Direction: 190°S
Pressure: 30.33"   Gusts: 17mph
Location:  36.53°N, 85.85°W
Report Text: KGLW 221355Z AUTO 19007G15KT 10SM OVC090 10/M03 A3033 RMK AO2 T00971029
Loading
Personal Weather Stations






























Interactive Weather Map New forecast layout! Learn more

10-Day Weather Forecast

Advertisements
Track Severe Weather on mobile